Time;durP1;ratioP1;P1;durP2;ratioP2;P2;SDS_P1;SDS_P2;PMS_P1;PMS_P2;Temp;Humidity;BMP_temperature;BMP_pressure;BME280_temperature;BME280_humidity;BME280_pressure;Samples;Min_cycle;Max_cycle;Signal;HPM_P1;HPM_P2
2022/06/16 00:00:36;;;;;;;8.30;3.65;;;12.90;99.90;;;;;;5072047;28;20102;-81
2022/06/16 00:03:05;;;;;;;7.63;2.90;;;12.80;99.90;;;;;;5072065;28;20044;-81
2022/06/16 00:05:34;;;;;;;6.60;3.10;;;12.80;99.90;;;;;;5073031;28;20109;-82
2022/06/16 00:08:02;;;;;;;8.95;3.25;;;12.80;99.90;;;;;;5073744;28;20124;-82
2022/06/16 00:10:28;;;;;;;6.07;2.88;;;12.70;99.90;;;;;;5070967;28;20114;-82
2022/06/16 00:12:53;;;;;;;7.97;3.42;;;12.70;99.90;;;;;;5073514;28;20056;-82
2022/06/16 00:15:22;;;;;;;8.27;3.63;;;12.60;99.90;;;;;;5072032;28;20472;-82
2022/06/16 00:17:48;;;;;;;8.90;3.92;;;12.60;99.90;;;;;;5071935;28;20129;-82
2022/06/16 00:20:14;;;;;;;6.97;3.70;;;12.50;99.90;;;;;;5072128;28;20056;-82
2022/06/16 00:22:40;;;;;;;5.53;3.55;;;12.50;99.90;;;;;;5072211;28;20077;-81
2022/06/16 00:25:07;;;;;;;11.50;3.65;;;12.50;99.90;;;;;;5062101;28;20044;-81
2022/06/16 00:27:33;;;;;;;6.05;3.42;;;12.40;99.90;;;;;;5052197;28;20061;-81
2022/06/16 00:29:59;;;;;;;7.35;3.55;;;12.40;99.90;;;;;;5060014;28;20036;-81
2022/06/16 00:32:25;;;;;;;7.25;3.08;;;12.40;99.90;;;;;;5072169;28;20131;-81
2022/06/16 00:34:51;;;;;;;8.57;3.85;;;12.40;99.90;;;;;;5072873;28;20189;-81
2022/06/16 00:37:17;;;;;;;9.52;3.08;;;12.40;99.90;;;;;;5071241;28;20041;-81
2022/06/16 00:39:43;;;;;;;9.40;3.03;;;12.30;99.90;;;;;;5071960;28;20047;-81
2022/06/16 00:42:10;;;;;;;7.60;3.13;;;12.30;99.90;;;;;;5072342;28;20040;-81
2022/06/16 00:44:42;;;;;;;6.53;3.03;;;12.30;99.90;;;;;;5054084;28;20044;-81
2022/06/16 00:47:08;;;;;;;5.65;3.10;;;12.30;99.90;;;;;;5073386;28;20097;-81
2022/06/16 00:49:37;;;;;;;7.90;3.00;;;12.30;99.90;;;;;;5069256;28;20060;-81
2022/06/16 00:52:08;;;;;;;8.90;2.88;;;12.20;99.90;;;;;;5052481;28;20060;-81
2022/06/16 00:54:43;;;;;;;9.88;3.15;;;12.20;99.90;;;;;;5053856;28;20049;-81
2022/06/16 00:57:14;;;;;;;6.88;3.70;;;12.10;99.90;;;;;;5071903;28;20052;-81
2022/06/16 00:59:42;;;;;;;7.13;3.85;;;12.00;99.90;;;;;;5070735;28;20056;-81
2022/06/16 01:02:08;;;;;;;7.97;3.40;;;11.90;99.90;;;;;;5072157;28;20396;-82
2022/06/16 01:04:53;;;;;;;7.30;3.30;;;12.00;99.90;;;;;;5071727;28;20055;-81
2022/06/16 01:07:35;;;;;;;10.63;4.13;;;12.00;99.90;;;;;;5073281;28;20041;-81
2022/06/16 01:10:02;;;;;;;8.05;3.42;;;11.90;99.90;;;;;;5066755;28;20461;-81
2022/06/16 01:15:29;;;;;;;9.15;3.50;;;12.00;99.90;;;;;;5062219;28;20056;-82
2022/06/16 01:18:04;;;;;;;6.85;3.40;;;12.00;99.90;;;;;;5071850;28;20049;-81
2022/06/16 01:20:53;;;;;;;;;;;12.10;99.90;;;;;;5071083;28;20048;-81
2022/06/16 01:23:26;;;;;;;8.25;3.55;;;12.00;99.90;;;;;;5060129;28;19920;-81
2022/06/16 01:26:25;;;;;;;7.80;3.63;;;12.10;99.90;;;;;;5070821;28;20075;-81
2022/06/16 01:29:12;;;;;;;10.77;4.25;;;12.00;99.90;;;;;;5072253;28;20059;-81
2022/06/16 01:31:43;;;;;;;5.20;3.30;;;12.00;99.90;;;;;;5071930;28;20059;-82
2022/06/16 01:34:17;;;;;;;7.05;3.38;;;12.00;99.90;;;;;;5074004;28;20078;-82
2022/06/16 01:37:13;;;;;;;7.93;2.92;;;12.10;99.90;;;;;;5072962;28;20098;-82
2022/06/16 01:40:07;;;;;;;10.07;3.50;;;12.10;99.90;;;;;;5036655;28;20381;-82
2022/06/16 01:42:54;;;;;;;6.22;3.13;;;12.10;99.90;;;;;;5065247;28;20052;-81
2022/06/16 01:45:35;;;;;;;9.85;3.42;;;12.10;99.90;;;;;;5075179;28;20594;-81
2022/06/16 01:48:02;;;;;;;6.45;3.25;;;12.10;99.90;;;;;;5073621;28;20044;-81
2022/06/16 01:50:43;;;;;;;6.47;3.72;;;12.10;99.90;;;;;;5076379;28;20123;-81
2022/06/16 01:53:16;;;;;;;8.30;3.53;;;12.20;99.90;;;;;;5075917;28;20094;-81
2022/06/16 01:55:54;;;;;;;7.65;3.72;;;12.20;99.90;;;;;;5074507;28;20058;-82
2022/06/16 01:58:25;;;;;;;8.18;3.35;;;12.20;99.90;;;;;;5074254;28;20049;-82
2022/06/16 02:00:56;;;;;;;6.20;3.30;;;12.30;99.90;;;;;;5076267;28;20373;-82
2022/06/16 02:03:28;;;;;;;5.93;3.35;;;12.20;99.90;;;;;;5075544;28;20044;-82
2022/06/16 02:06:16;;;;;;;4.75;3.67;;;12.20;99.90;;;;;;5076137;28;20116;-81
2022/06/16 02:08:47;;;;;;;12.38;4.38;;;12.30;99.90;;;;;;5073313;28;20056;-81
2022/06/16 02:11:31;;;;;;;6.95;3.97;;;12.20;99.90;;;;;;5075786;28;20119;-81
2022/06/16 02:14:07;;;;;;;9.43;4.13;;;12.20;99.90;;;;;;5073986;28;20052;-81
2022/06/16 02:16:35;;;;;;;10.48;3.65;;;12.10;99.90;;;;;;5073609;28;20041;-81
2022/06/16 02:19:05;;;;;;;6.75;3.17;;;12.10;99.90;;;;;;5075375;28;20098;-81
2022/06/16 02:21:40;;;;;;;5.72;3.17;;;12.00;99.90;;;;;;5074327;28;20060;-81
2022/06/16 02:24:07;;;;;;;;;;;12.00;99.90;;;;;;5074789;28;20036;-81
2022/06/16 02:26:33;;;;;;;7.43;3.50;;;12.00;99.90;;;;;;5057968;28;19920;-81
2022/06/16 02:29:02;;;;;;;8.55;3.63;;;11.90;99.90;;;;;;5073969;28;20115;-81
2022/06/16 02:32:09;;;;;;;5.85;3.45;;;11.90;99.90;;;;;;5075446;28;20059;-82
2022/06/16 02:35:12;;;;;;;8.82;4.00;;;11.90;99.90;;;;;;5091219;28;20040;-81
2022/06/16 02:37:40;;;;;;;8.27;4.10;;;11.90;99.90;;;;;;5073869;28;20101;-81
2022/06/16 02:40:44;;;;;;;7.10;4.63;;;11.90;99.90;;;;;;5073934;28;20080;-81
2022/06/16 02:43:21;;;;;;;6.70;4.03;;;11.90;99.90;;;;;;5073761;28;20519;-81
2022/06/16 02:46:04;;;;;;;10.25;4.70;;;11.80;99.90;;;;;;5074626;28;20049;-81
2022/06/16 02:49:14;;;;;;;8.02;3.42;;;11.80;99.90;;;;;;5074649;28;20044;-81
2022/06/16 02:52:07;;;;;;;9.30;4.45;;;11.80;99.90;;;;;;5074396;28;20075;-81
2022/06/16 02:54:52;;;;;;;7.13;4.38;;;11.70;99.90;;;;;;5073176;28;20045;-81
2022/06/16 02:57:21;;;;;;;9.05;4.80;;;11.70;99.90;;;;;;5073204;28;20060;-81
2022/06/16 02:59:55;;;;;;;13.25;4.82;;;11.70;99.90;;;;;;5074443;28;20131;-81
2022/06/16 03:02:24;;;;;;;13.10;4.70;;;11.60;99.90;;;;;;5073541;28;20129;-81
2022/06/16 03:04:52;;;;;;;9.75;4.53;;;11.60;99.90;;;;;;5073978;28;20059;-81
2022/06/16 03:07:18;;;;;;;8.82;4.28;;;11.60;99.90;;;;;;5072287;28;20131;-81
2022/06/16 03:09:44;;;;;;;6.60;4.50;;;11.60;99.90;;;;;;5074249;28;20186;-81
2022/06/16 03:12:12;;;;;;;7.75;4.15;;;11.50;99.90;;;;;;5073103;28;20426;-81
2022/06/16 03:14:38;;;;;;;14.60;4.20;;;11.50;99.90;;;;;;5071997;28;20663;-82
2022/06/16 03:17:05;;;;;;;7.45;4.22;;;11.50;99.90;;;;;;5054613;28;20115;-81
2022/06/16 03:19:31;;;;;;;8.35;5.57;;;11.40;99.90;;;;;;5074169;28;20545;-81
2022/06/16 03:21:57;;;;;;;8.82;4.72;;;11.40;99.90;;;;;;5073432;28;20052;-81
2022/06/16 03:24:23;;;;;;;6.63;4.32;;;11.40;99.90;;;;;;5073901;28;20032;-81
2022/06/16 03:26:49;;;;;;;11.75;5.15;;;11.40;99.90;;;;;;5073715;28;20048;-81
2022/06/16 03:29:15;;;;;;;8.48;4.75;;;11.40;99.90;;;;;;5072454;28;20400;-81
2022/06/16 03:31:41;;;;;;;11.73;5.30;;;11.30;99.90;;;;;;5074452;28;20036;-81
2022/06/16 03:34:08;;;;;;;10.40;4.95;;;11.30;99.90;;;;;;5071878;28;20047;-81
2022/06/16 03:36:36;;;;;;;5.85;4.10;;;11.30;99.90;;;;;;5088167;28;20135;-82
2022/06/16 03:39:03;;;;;;;8.05;4.50;;;11.20;99.90;;;;;;5073115;28;20045;-81
2022/06/16 03:41:29;;;;;;;10.77;4.35;;;11.20;99.90;;;;;;5071689;28;20551;-81
2022/06/16 03:43:54;;;;;;;8.50;4.82;;;11.20;99.90;;;;;;5073130;28;20179;-81
2022/06/16 03:46:20;;;;;;;7.47;4.80;;;11.20;99.90;;;;;;5073643;28;20044;-81
2022/06/16 03:48:47;;;;;;;11.13;5.10;;;11.30;99.90;;;;;;5072035;28;20530;-81
2022/06/16 03:51:12;;;;;;;9.52;5.45;;;11.30;99.90;;;;;;5072327;28;20040;-81
2022/06/16 03:53:39;;;;;;;7.88;4.97;;;11.30;99.90;;;;;;5088627;28;20373;-81
2022/06/16 03:56:06;;;;;;;9.95;4.63;;;11.30;99.90;;;;;;5073365;28;20037;-81
2022/06/16 03:58:32;;;;;;;7.07;4.85;;;11.30;99.90;;;;;;5073981;28;20052;-81
2022/06/16 04:00:58;;;;;;;11.25;5.32;;;11.30;99.90;;;;;;5074124;28;20048;-81
2022/06/16 04:06:12;;;;;;;13.02;6.50;;;11.40;99.90;;;;;;5073346;28;20056;-81
2022/06/16 04:08:39;;;;;;;9.98;5.28;;;11.40;99.90;;;;;;5072924;28;20174;-81
2022/06/16 04:13:50;;;;;;;7.57;5.32;;;11.50;99.90;;;;;;5089385;28;20397;-82
2022/06/16 04:16:16;;;;;;;7.70;5.18;;;11.50;99.90;;;;;;5070958;28;20057;-81
2022/06/16 04:18:42;;;;;;;8.48;4.80;;;11.60;99.90;;;;;;5073433;28;20044;-81
2022/06/16 04:21:10;;;;;;;8.13;4.75;;;11.60;99.90;;;;;;5071767;28;20048;-81
2022/06/16 04:23:37;;;;;;;9.48;5.05;;;11.70;99.90;;;;;;5071791;28;20044;-81
2022/06/16 04:26:03;;;;;;;7.65;4.38;;;11.70;99.90;;;;;;5064854;28;20088;-81
2022/06/16 04:28:29;;;;;;;8.27;4.88;;;11.80;99.90;;;;;;5052325;28;20060;-81
2022/06/16 04:30:55;;;;;;;7.03;4.82;;;11.80;99.90;;;;;;5075042;28;20040;-81
2022/06/16 04:33:21;;;;;;;7.88;4.75;;;11.90;99.90;;;;;;5068876;28;20037;-82
2022/06/16 04:35:47;;;;;;;11.30;4.82;;;11.90;99.90;;;;;;5078320;28;20052;-82
2022/06/16 04:38:12;;;;;;;8.75;5.65;;;11.90;99.90;;;;;;5074176;28;20103;-82
2022/06/16 04:40:38;;;;;;;7.18;4.93;;;12.00;99.90;;;;;;5073398;28;20048;-81
2022/06/16 04:43:04;;;;;;;8.73;5.75;;;12.00;99.90;;;;;;5052608;28;20112;-82
2022/06/16 04:45:30;;;;;;;11.63;5.85;;;12.10;99.90;;;;;;5053000;28;20049;-82
2022/06/16 04:47:56;;;;;;;8.70;6.07;;;12.10;99.90;;;;;;5071676;28;20128;-82
2022/06/16 04:50:22;;;;;;;12.23;7.47;;;12.20;99.90;;;;;;5071329;28;20131;-82
2022/06/16 04:52:48;;;;;;;13.60;7.53;;;12.20;99.90;;;;;;5071068;28;20381;-82
2022/06/16 04:55:15;;;;;;;10.93;7.55;;;12.30;99.90;;;;;;5068954;28;20504;-82
2022/06/16 04:57:41;;;;;;;13.30;7.32;;;12.30;99.90;;;;;;5050966;28;20048;-81
2022/06/16 05:00:16;;;;;;;13.55;7.40;;;12.40;99.90;;;;;;5075281;28;20060;-83
2022/06/16 05:02:41;;;;;;;9.57;6.53;;;12.50;99.90;;;;;;5071423;28;20040;-82
2022/06/16 05:05:08;;;;;;;13.13;6.88;;;12.50;99.90;;;;;;5072348;28;20059;-82
2022/06/16 05:07:34;;;;;;;9.38;7.13;;;12.60;99.90;;;;;;5072749;28;20048;-82
2022/06/16 05:10:01;;;;;;;8.65;6.53;;;12.60;99.90;;;;;;5075978;28;20048;-82
2022/06/16 05:12:26;;;;;;;9.27;7.35;;;12.70;99.90;;;;;;5075941;28;20373;-82
2022/06/16 05:14:58;;;;;;;15.13;7.55;;;12.70;99.90;;;;;;5075827;28;20051;-82
2022/06/16 05:17:29;;;;;;;13.10;7.97;;;12.80;99.90;;;;;;5074629;28;20066;-81
2022/06/16 05:19:55;;;;;;;11.55;8.13;;;12.90;99.90;;;;;;5065576;28;20036;-81
2022/06/16 05:22:22;;;;;;;11.18;8.10;;;12.90;99.90;;;;;;5074964;28;20541;-81
2022/06/16 05:24:48;;;;;;;8.98;7.05;;;13.00;99.90;;;;;;5076017;28;20051;-82
2022/06/16 05:27:15;;;;;;;10.52;7.07;;;13.10;99.90;;;;;;5081765;28;20395;-82
2022/06/16 05:29:41;;;;;;;9.82;7.28;;;13.20;99.90;;;;;;5057885;28;20041;-82
2022/06/16 05:32:09;;;;;;;12.13;7.80;;;13.20;99.90;;;;;;5071225;28;20071;-82
2022/06/16 05:34:36;;;;;;;10.05;7.35;;;13.30;99.90;;;;;;5071805;28;20048;-83
2022/06/16 05:37:03;;;;;;;12.00;7.57;;;13.40;99.90;;;;;;5077503;28;20056;-83
2022/06/16 05:39:29;;;;;;;12.93;7.30;;;13.50;99.90;;;;;;5058486;28;20128;-82
2022/06/16 05:41:55;;;;;;;10.65;7.45;;;13.60;99.90;;;;;;5056493;28;20116;-82
2022/06/16 05:44:21;;;;;;;10.77;7.00;;;13.70;99.90;;;;;;5070295;28;20040;-82
2022/06/16 05:46:47;;;;;;;10.43;6.65;;;13.80;99.90;;;;;;5074104;28;20488;-82
2022/06/16 05:49:15;;;;;;;10.88;6.95;;;14.00;99.90;;;;;;5074921;28;20055;-83
2022/06/16 05:51:41;;;;;;;9.30;6.80;;;14.10;99.90;;;;;;5074340;28;20044;-83
2022/06/16 05:54:06;;;;;;;13.70;5.93;;;14.20;99.90;;;;;;5074970;28;20496;-83
2022/06/16 05:56:33;;;;;;;22.70;6.57;;;14.20;99.90;;;;;;5074894;28;20045;-82
2022/06/16 05:58:59;;;;;;;7.97;5.07;;;14.30;99.90;;;;;;5072372;28;20500;-82
2022/06/16 06:01:26;;;;;;;11.30;6.50;;;14.50;99.90;;;;;;5064350;28;20514;-82
2022/06/16 06:03:52;;;;;;;10.43;4.45;;;14.60;99.90;;;;;;5075941;28;20491;-82
2022/06/16 06:06:17;;;;;;;9.68;4.20;;;14.70;99.90;;;;;;5075356;28;20129;-82
2022/06/16 06:17:14;;;;;;;8.18;2.60;;;15.10;99.90;;;;;;5091672;28;20389;-82
2022/06/16 06:19:40;;;;;;;5.60;2.22;;;15.20;99.90;;;;;;5074530;28;20040;-83
2022/06/16 06:22:13;;;;;;;6.95;2.15;;;15.30;99.90;;;;;;5073872;28;20377;-83
2022/06/16 06:24:44;;;;;;;6.75;2.10;;;15.40;99.90;;;;;;5075795;28;20048;-83
2022/06/16 06:27:31;;;;;;;5.93;1.92;;;15.50;99.90;;;;;;5075674;28;20050;-83
2022/06/16 06:29:58;;;;;;;6.07;2.10;;;15.60;99.90;;;;;;5073528;28;20044;-82
2022/06/16 06:32:25;;;;;;;10.40;2.15;;;15.80;99.90;;;;;;5074306;28;20048;-83
2022/06/16 06:34:52;;;;;;;5.93;2.10;;;15.90;99.90;;;;;;5074292;28;20500;-83
2022/06/16 06:37:20;;;;;;;14.57;2.53;;;16.00;99.90;;;;;;5073496;28;20040;-83
2022/06/16 06:39:46;;;;;;;7.72;1.85;;;16.10;99.90;;;;;;5073975;28;20044;-83
2022/06/16 06:42:12;;;;;;;9.15;1.90;;;16.20;99.90;;;;;;5073947;28;20093;-82
2022/06/16 06:44:38;;;;;;;11.95;2.80;;;16.20;99.90;;;;;;5074883;28;20119;-82
2022/06/16 06:47:05;;;;;;;8.20;1.98;;;16.30;99.90;;;;;;5075203;28;20052;-83
2022/06/16 06:49:31;;;;;;;5.93;2.25;;;16.30;99.90;;;;;;5073498;28;20067;-83
2022/06/16 06:51:56;;;;;;;5.90;1.55;;;16.40;99.90;;;;;;5074138;28;20040;-83
2022/06/16 06:54:22;;;;;;;3.95;1.40;;;16.50;99.90;;;;;;5074079;28;20128;-83
2022/06/16 06:56:50;;;;;;;7.20;1.63;;;16.60;99.90;;;;;;5072913;28;20045;-83
2022/06/16 06:59:18;;;;;;;5.88;1.60;;;16.80;99.90;;;;;;5073938;28;20460;-82
2022/06/16 07:01:51;;;;;;;4.40;1.48;;;16.80;99.90;;;;;;5075181;28;20106;-83
2022/06/16 07:04:17;;;;;;;4.38;1.95;;;16.90;99.90;;;;;;5074015;28;20441;-83
2022/06/16 07:06:44;;;;;;;6.57;2.00;;;17.00;99.90;;;;;;5074840;28;20114;-83
2022/06/16 07:09:11;;;;;;;4.43;1.58;;;17.10;99.90;;;;;;5075013;28;20036;-83
2022/06/16 07:11:40;;;;;;;9.45;2.20;;;17.20;99.90;;;;;;5072690;28;20471;-83
2022/06/16 07:14:06;;;;;;;8.52;1.55;;;17.30;99.90;;;;;;5073703;28;20107;-84
2022/06/16 07:16:32;;;;;;;5.38;1.20;;;17.40;99.90;;;;;;5057025;28;20041;-83
2022/06/16 07:18:58;;;;;;;6.25;1.27;;;17.50;99.90;;;;;;5073766;28;20458;-83
2022/06/16 07:21:24;;;;;;;5.93;1.40;;;17.60;99.90;;;;;;5075160;28;20090;-83
2022/06/16 07:23:51;;;;;;;4.18;0.82;;;17.70;99.90;;;;;;5074637;28;20048;-83
2022/06/16 07:26:18;;;;;;;4.50;0.98;;;17.80;99.90;;;;;;5072688;28;20403;-81
2022/06/16 07:28:43;;;;;;;4.50;1.08;;;17.90;99.90;;;;;;5073377;28;20059;-81
2022/06/16 07:31:09;;;;;;;4.65;1.50;;;17.90;99.90;;;;;;5074226;28;20488;-83
2022/06/16 07:33:35;;;;;;;2.22;0.80;;;18.00;99.90;;;;;;5073628;28;20063;-84
2022/06/16 07:36:01;;;;;;;7.05;1.63;;;18.00;99.90;;;;;;5074477;28;20048;-86
2022/06/16 07:38:27;;;;;;;2.97;1.27;;;18.00;99.90;;;;;;5073205;28;20048;-85
2022/06/16 07:41:30;;;;;;;2.55;1.10;;;18.10;99.90;;;;;;5072375;28;20052;-84
2022/06/16 07:43:39;;;;;;;3.35;1.00;;;18.10;99.90;;;;;;5073856;28;20496;-85
2022/06/16 07:46:05;;;;;;;3.80;1.10;;;18.00;99.90;;;;;;5071987;28;20084;-84
2022/06/16 07:48:31;;;;;;;2.15;1.17;;;18.10;99.90;;;;;;5072998;28;20158;-85
2022/06/16 07:50:56;;;;;;;4.95;1.70;;;18.10;99.90;;;;;;5072979;28;20118;-85
2022/06/16 07:53:22;;;;;;;2.38;1.20;;;18.30;99.90;;;;;;5073172;28;20055;-85
2022/06/16 07:55:48;;;;;;;5.45;1.20;;;18.30;99.90;;;;;;5072722;28;20476;-84
2022/06/16 07:58:14;;;;;;;3.90;1.27;;;18.40;99.90;;;;;;5072716;28;20049;-83
2022/06/16 08:00:39;;;;;;;3.05;1.33;;;18.40;99.90;;;;;;5071687;28;20081;-84
2022/06/16 08:03:05;;;;;;;3.55;1.40;;;18.40;99.90;;;;;;5073966;28;20033;-84
2022/06/16 08:05:32;;;;;;;3.50;1.30;;;18.50;99.90;;;;;;5072334;28;20055;-85
2022/06/16 08:07:58;;;;;;;2.88;1.40;;;18.60;99.90;;;;;;5073139;28;20047;-84
2022/06/16 08:10:27;;;;;;;3.50;1.67;;;18.60;99.90;;;;;;5073715;28;20392;-83
2022/06/16 08:12:53;;;;;;;4.70;1.48;;;18.70;99.90;;;;;;5073449;28;20516;-82
2022/06/16 08:15:19;;;;;;;5.95;1.85;;;18.70;99.90;;;;;;5072700;28;20049;-81
2022/06/16 08:17:48;;;;;;;5.80;2.10;;;18.70;99.90;;;;;;5072524;28;20040;-83
2022/06/16 08:20:16;;;;;;;3.80;1.27;;;18.70;99.90;;;;;;5072574;28;20067;-85
2022/06/16 08:22:42;;;;;;;3.75;1.35;;;18.80;99.90;;;;;;5071433;28;20040;-84
2022/06/16 08:25:12;;;;;;;4.30;1.75;;;18.80;99.90;;;;;;5072468;28;20044;-83
2022/06/16 08:27:40;;;;;;;3.55;1.58;;;18.80;99.90;;;;;;5055682;28;20044;-87
2022/06/16 08:30:12;;;;;;;7.82;2.30;;;18.80;99.90;;;;;;5071538;28;20533;-84
2022/06/16 08:32:37;;;;;;;4.93;2.38;;;18.80;99.90;;;;;;5072443;28;20045;-82
2022/06/16 08:35:04;;;;;;;3.10;1.67;;;18.80;99.90;;;;;;5071400;28;20551;-83
2022/06/16 08:37:30;;;;;;;7.40;2.08;;;18.80;99.90;;;;;;5072235;28;20059;-83
2022/06/16 08:39:56;;;;;;;2.10;1.40;;;18.80;99.90;;;;;;5073412;28;20107;-82
2022/06/16 08:42:50;;;;;;;6.90;1.90;;;18.90;99.90;;;;;;5070606;28;20040;-83
2022/06/16 08:45:36;;;;;;;6.68;2.08;;;19.00;99.90;;;;;;5072061;28;20476;-83
2022/06/16 08:48:11;;;;;;;5.95;2.05;;;19.10;99.90;;;;;;5072038;28;20084;-84
2022/06/16 08:50:51;;;;;;;5.15;2.13;;;19.20;99.90;;;;;;5071142;28;20087;-83
2022/06/16 08:53:49;;;;;;;4.32;2.08;;;19.20;99.90;;;;;;5072012;28;20041;-86
2022/06/16 08:56:18;;;;;;;5.07;2.03;;;19.10;99.90;;;;;;5071402;28;20475;-83
2022/06/16 08:58:59;;;;;;;8.27;2.50;;;19.10;99.90;;;;;;5072060;28;20492;-83
2022/06/16 09:01:34;;;;;;;8.15;2.38;;;19.00;99.90;;;;;;5073284;28;20449;-83
2022/06/16 09:04:09;;;;;;;7.03;2.40;;;18.90;99.90;;;;;;5071313;28;20040;-84
2022/06/16 09:07:00;;;;;;;5.85;1.88;;;18.90;99.90;;;;;;5073321;28;20166;-83
2022/06/16 09:12:48;;;;;;;7.23;1.60;;;18.80;99.90;;;;;;5072365;28;20060;-83
2022/06/16 09:15:20;;;;;;;5.50;1.83;;;18.90;99.90;;;;;;5071851;28;20555;-82
2022/06/16 09:18:07;;;;;;;5.32;2.05;;;19.00;99.90;;;;;;5072296;28;20078;-82
2022/06/16 09:20:50;;;;;;;5.47;2.20;;;19.10;99.90;;;;;;5071725;28;20083;-85
2022/06/16 09:23:43;;;;;;;4.85;2.13;;;19.20;99.90;;;;;;5071894;28;20076;-83
2022/06/16 09:26:31;;;;;;;5.15;2.40;;;19.20;99.90;;;;;;5071969;28;20056;-83
2022/06/16 09:29:28;;;;;;;3.10;1.60;;;19.20;99.90;;;;;;5071645;28;20052;-82
2022/06/16 09:32:00;;;;;;;7.13;2.35;;;19.30;99.90;;;;;;5072109;28;20044;-81
2022/06/16 09:34:48;;;;;;;5.50;2.50;;;19.30;99.90;;;;;;5072889;28;20041;-83
2022/06/16 09:37:21;;;;;;;5.70;1.98;;;19.40;99.90;;;;;;5071510;28;20488;-82
2022/06/16 09:40:18;;;;;;;7.68;2.05;;;19.50;99.90;;;;;;5072087;28;20047;-84
2022/06/16 09:43:05;;;;;;;4.50;2.30;;;19.60;99.90;;;;;;5071124;28;20097;-82
2022/06/16 09:45:37;;;;;;;6.63;2.08;;;19.60;99.90;;;;;;5071981;28;20076;-82
2022/06/16 09:48:26;;;;;;;5.95;2.40;;;19.60;99.90;;;;;;5071851;28;20105;-82
2022/06/16 09:50:58;;;;;;;4.70;2.15;;;19.60;99.90;;;;;;5071747;28;20102;-84
2022/06/16 09:53:28;;;;;;;3.45;2.08;;;19.70;99.90;;;;;;5072769;28;20049;-82
2022/06/16 09:56:03;;;;;;;5.57;2.20;;;19.80;99.90;;;;;;5076358;28;20478;-82
2022/06/16 09:58:57;;;;;;;6.22;2.00;;;19.90;99.90;;;;;;5074993;28;20042;-83
2022/06/16 10:01:27;;;;;;;4.70;1.75;;;20.00;99.90;;;;;;5074484;28;20432;-82
2022/06/16 10:04:02;;;;;;;8.38;2.80;;;20.10;99.90;;;;;;5058256;28;20051;-83
2022/06/16 10:06:36;;;;;;;4.68;2.20;;;20.10;99.90;;;;;;5075147;28;20044;-84
2022/06/16 10:09:16;;;;;;;5.90;2.95;;;20.20;99.90;;;;;;5076045;28;20407;-83
2022/06/16 10:12:09;;;;;;;4.55;2.65;;;20.30;99.90;;;;;;5074558;28;20515;-82
2022/06/16 10:14:40;;;;;;;6.15;2.17;;;20.40;99.90;;;;;;5073876;28;20102;-87
2022/06/16 10:17:08;;;;;;;3.72;2.25;;;20.40;99.90;;;;;;5074879;28;20090;-83
2022/06/16 10:19:38;;;;;;;4.15;2.42;;;20.50;99.90;;;;;;5074625;28;20109;-83
2022/06/16 10:22:06;;;;;;;4.13;2.08;;;20.60;99.90;;;;;;5074941;28;20044;-82
2022/06/16 10:24:45;;;;;;;9.32;3.17;;;20.60;99.90;;;;;;5075602;28;20053;-82
2022/06/16 10:27:13;;;;;;;6.78;2.45;;;20.60;99.90;;;;;;5075644;28;20044;-82
2022/06/16 10:29:53;;;;;;;5.35;2.28;;;20.60;99.90;;;;;;5073502;28;20499;-81
2022/06/16 10:32:31;;;;;;;10.52;2.10;;;20.70;99.90;;;;;;5074653;28;20126;-83
2022/06/16 10:34:57;;;;;;;5.30;2.75;;;20.70;99.90;;;;;;5074780;28;20044;-82
2022/06/16 10:37:27;;;;;;;7.22;2.20;;;20.70;99.90;;;;;;5074200;28;20055;-82
2022/06/16 10:40:03;;;;;;;7.57;2.67;;;20.80;99.90;;;;;;5075444;28;20048;-83
2022/06/16 10:42:33;;;;;;;5.40;2.58;;;20.90;98.60;;;;;;5073320;28;20045;-82
2022/06/16 10:45:05;;;;;;;3.80;2.45;;;20.90;99.90;;;;;;5075508;28;20045;-83
2022/06/16 10:47:39;;;;;;;6.97;2.33;;;20.90;99.90;;;;;;5074361;28;20071;-82
2022/06/16 10:50:06;;;;;;;;;;;20.90;99.90;;;;;;5073903;28;20084;-81
2022/06/16 10:52:39;;;;;;;5.93;2.83;;;20.90;99.90;;;;;;5090917;28;19920;-82
2022/06/16 10:55:11;;;;;;;4.60;2.25;;;20.90;99.90;;;;;;5075268;28;20397;-81
2022/06/16 10:57:43;;;;;;;12.13;2.75;;;21.00;99.90;;;;;;5074508;28;20045;-82
2022/06/16 11:00:22;;;;;;;6.85;2.33;;;21.10;99.90;;;;;;5073894;28;20384;-82
2022/06/16 11:03:17;;;;;;;6.10;2.00;;;21.20;99.90;;;;;;5073246;28;20158;-82
2022/06/16 11:05:59;;;;;;;5.82;2.30;;;21.20;99.90;;;;;;5071838;28;20396;-82
2022/06/16 11:08:42;;;;;;;3.67;2.38;;;21.20;99.90;;;;;;5073525;28;20044;-82
2022/06/16 11:11:09;;;;;;;3.85;2.50;;;21.10;97.10;;;;;;5072835;28;20052;-81
2022/06/16 11:13:38;;;;;;;4.57;2.63;;;20.90;97.30;;;;;;5073822;28;20057;-79
2022/06/16 11:16:11;;;;;;;5.40;2.70;;;20.90;97.60;;;;;;5073631;28;20071;-80
2022/06/16 11:18:38;;;;;;;5.60;2.75;;;20.80;97.40;;;;;;5074175;28;20464;-81
2022/06/16 11:21:18;;;;;;;6.93;2.53;;;20.80;97.70;;;;;;5073514;28;20083;-81
2022/06/16 11:23:49;;;;;;;10.05;2.25;;;20.90;98.80;;;;;;5073858;28;20396;-81
2022/06/16 11:26:28;;;;;;;6.70;2.33;;;21.00;99.40;;;;;;5073156;28;20048;-81
2022/06/16 11:29:01;;;;;;;3.30;1.83;;;21.10;99.40;;;;;;5073558;28;20556;-83
2022/06/16 11:31:44;;;;;;;3.65;2.35;;;21.20;98.80;;;;;;5076690;28;20043;-88
2022/06/16 11:34:23;;;;;;;8.55;2.90;;;21.30;96.00;;;;;;5074319;28;20104;-83
2022/06/16 11:37:07;;;;;;;6.55;2.60;;;21.20;96.60;;;;;;5064235;28;20088;-85
2022/06/16 11:39:42;;;;;;;7.53;2.25;;;21.20;95.30;;;;;;5052109;28;20045;-82
2022/06/16 11:42:46;;;;;;;4.43;1.88;;;21.10;94.90;;;;;;5063379;28;20115;-83
2022/06/16 11:45:37;;;;;;;7.57;2.10;;;21.20;95.30;;;;;;5069687;28;20396;-85
2022/06/16 11:48:41;;;;;;;4.57;2.08;;;21.30;97.90;;;;;;5069814;28;20041;-84
2022/06/16 11:51:28;;;;;;;3.60;2.33;;;21.40;99.90;;;;;;5071466;28;20119;-84
2022/06/16 11:54:13;;;;;;;11.98;3.13;;;21.60;98.40;;;;;;5085801;28;20404;-83
2022/06/16 11:56:39;;;;;;;;;;;21.70;99.10;;;;;;5054129;28;20041;-83
2022/06/16 11:59:24;;;;;;;5.72;2.40;;;21.70;98.70;;;;;;5071161;28;19920;-83
2022/06/16 12:02:17;;;;;;;6.50;2.80;;;21.70;95.80;;;;;;5076789;28;20045;-84
2022/06/16 12:05:05;;;;;;;5.68;2.42;;;21.70;95.70;;;;;;5077293;28;20450;-84
2022/06/16 12:07:40;;;;;;;8.13;2.70;;;21.60;97.50;;;;;;5076719;28;20486;-85
2022/06/16 12:10:16;;;;;;;7.07;2.47;;;21.60;96.00;;;;;;5072674;28;20153;-83
2022/06/16 12:13:02;;;;;;;6.15;2.60;;;21.70;96.40;;;;;;5057359;28;20503;-81
2022/06/16 12:15:53;;;;;;;7.57;2.45;;;21.70;95.00;;;;;;5053590;28;20436;-82
2022/06/16 12:18:51;;;;;;;5.43;2.20;;;21.80;95.20;;;;;;5065017;28;20044;-81
2022/06/16 12:21:36;;;;;;;4.97;2.00;;;21.80;95.00;;;;;;5071734;28;20400;-80
2022/06/16 12:24:13;;;;;;;;;;;21.90;96.80;;;;;;5074105;28;20075;-86
2022/06/16 12:26:51;;;;;;;7.32;2.65;;;22.00;97.20;;;;;;5088882;28;19965;-81
2022/06/16 12:29:51;;;;;;;8.70;2.80;;;22.10;95.70;;;;;;5073285;28;20051;-82
2022/06/16 12:32:22;;;;;;;6.88;2.53;;;22.10;95.00;;;;;;5073184;28;20040;-81
2022/06/16 12:35:09;;;;;;;3.60;2.28;;;21.90;94.30;;;;;;5074391;28;20052;-82
2022/06/16 12:37:42;;;;;;;5.32;2.35;;;21.90;95.90;;;;;;5090088;28;20037;-81
2022/06/16 12:40:22;;;;;;;8.93;2.72;;;21.80;94.60;;;;;;5073024;28;20113;-82
2022/06/16 12:43:22;;;;;;;5.15;2.30;;;21.80;93.90;;;;;;5061135;28;20441;-81
2022/06/16 12:45:55;;;;;;;5.88;2.50;;;21.80;94.20;;;;;;5040221;28;20416;-82
2022/06/16 12:48:31;;;;;;;8.45;2.70;;;21.90;95.60;;;;;;5068715;28;20079;-82
2022/06/16 12:51:06;;;;;;;8.73;3.03;;;21.90;95.40;;;;;;5074013;28;20051;-83
2022/06/16 12:53:38;;;;;;;;;;;21.90;95.10;;;;;;5073678;28;20044;-81
2022/06/16 12:56:15;;;;;;;7.28;2.45;;;21.80;94.70;;;;;;5058306;28;19925;-81
2022/06/16 12:58:49;;;;;;;7.88;2.20;;;21.70;95.60;;;;;;5061536;28;20115;-82
2022/06/16 13:01:15;;;;;;;5.45;2.20;;;21.70;95.80;;;;;;5042020;28;20084;-83
2022/06/16 13:04:09;;;;;;;3.33;1.92;;;21.90;95.90;;;;;;5070571;28;21001;-82
2022/06/16 13:06:37;;;;;;;4.50;1.85;;;22.10;94.60;;;;;;5075967;28;20043;-82
2022/06/16 13:09:06;;;;;;;4.43;1.98;;;22.20;94.80;;;;;;5066954;28;20116;-82
2022/06/16 13:11:37;;;;;;;5.43;2.30;;;22.40;93.20;;;;;;5051239;28;20057;-82
2022/06/16 13:14:10;;;;;;;23.42;2.70;;;22.40;93.20;;;;;;5074791;28;20121;-80
2022/06/16 13:16:40;;;;;;;3.83;2.25;;;22.40;93.40;;;;;;5064468;28;20041;-88
2022/06/16 13:19:16;;;;;;;4.43;2.65;;;22.30;92.90;;;;;;5061471;28;20558;-82
2022/06/16 13:21:56;;;;;;;6.47;2.55;;;22.30;92.00;;;;;;5060662;28;20106;-83
2022/06/16 13:24:41;;;;;;;10.77;2.90;;;22.30;93.00;;;;;;5070363;28;20489;-81
2022/06/16 13:27:32;;;;;;;9.20;3.08;;;22.30;93.20;;;;;;5053016;28;20065;-81
2022/06/16 13:30:17;;;;;;;8.98;3.25;;;22.40;95.40;;;;;;5050569;28;20060;-81
2022/06/16 13:32:49;;;;;;;3.17;1.77;;;22.50;96.60;;;;;;5056602;28;20103;-83
2022/06/16 13:35:15;;;;;;;4.43;1.92;;;22.60;94.40;;;;;;5076519;28;20123;-82